Αρχική σελίδα
METAR-TAF:

METAR-TAF

Αεροδρόμια :

Ρέυκιαβικ, Ισλανδία

γεωγραφικό πλάτος: 64-08N, γεωγραφικό μήκος: 021-54W, υψόμετρο: 54 μ

Παρών καιρός

Η αναφορά έγινε 22 λεπτά πριν, στις 21:00 UTC
Άνεμος 17 kt από Β
Θερμοκρασία 10°C
Υγρασία 66%
Πίεση 991 hPa
Ορατότητα 10 χλμ και άνω
Λίγα νέφη σε ύψος 2000 πόδια
Διάσπαρτα νέφη σε ύψος 4500 πόδια

METAR: BIRK 172100Z 01017KT 9999 FEW020 SCT045 10/04 Q0991

Χρόνος: 21:22 (21:22 UTC)

Πρόγνωση Καιρού

Η αναφορά έγινε 1 ώρα και 23 λεπτά πριν, στις 19:59 UTC
Η πρόγνωση ισχύει από τις 17 στις 21 UTC έως τις 18 στις 21 UTC
Άνεμος 20 kt από Β/BA
Ορατότητα 10 χλμ και άνω
Λίγα νέφη σε ύψος 2800 πόδια
Διάσπαρτα νέφη σε ύψος 4200 πόδια
Καθιστάμενος
από 18 στις 07 UTC έως τις 18 στις 10 UTC
Άνεμος 10 kt από Β/BΔ

TAF: BIRK 171959Z 1721/1821 02020KT 9999 FEW028 SCT042 TX14/1815Z TN07/1806Z BECMG 1807/1810 33010KT

Μετεωρολογικές αναφορές και προγνώσεις για περισσότερα από 4000 αεροδρόμια (δελτία METAR και TAF).

Οι διαθέσιμοι σταθμοί απεικονίζονται στο χάρτη με κίτρινες και κόκκινες κουκκίδες.

Μετακινήστε το ποντίκι πάνω από τις κουκκίδες για να δείτε το όνομα του σταθμού.

Στη συνέχεια, κάντε κλικ για να δείτε τις μετεωρολογικές αναφορές και τις προγνώσεις καιρού.

Για να αλλάξετε το χάρτη: κάντε κλικ στα πράσινα κουμπιά με τον μαύρο σταυρό για να ζουμάρετε, στο πράσινο κουμπί με την παύλα για να αφαιρέσετε το ζουμ ή στα πράσινα βέλη για να αντιπαραβάλλετε χάρτες.


METAR-TAF: